createdAt,value
2023-03-22T00:00:46.653Z,6.93
2023-03-22T00:02:51.416Z,5.82
2023-03-22T00:04:56.451Z,6.90
2023-03-22T00:07:01.479Z,5.78
2023-03-22T00:09:06.879Z,5.78
2023-03-22T00:11:15.115Z,6.18
2023-03-22T00:13:19.871Z,5.72
2023-03-22T00:15:24.961Z,5.35
2023-03-22T00:17:30.642Z,6.30
2023-03-22T00:19:37.180Z,5.57
2023-03-22T00:21:41.864Z,7.20
2023-03-22T00:23:47.318Z,7.28
2023-03-22T00:25:52.448Z,6.20
2023-03-22T00:27:59.864Z,7.25
2023-03-22T00:30:04.841Z,6.65
2023-03-22T00:32:09.631Z,8.43
2023-03-22T00:34:14.354Z,6.40
2023-03-22T00:36:19.102Z,6.93
2023-03-22T00:38:39.530Z,6.65
2023-03-22T00:40:46.662Z,8.57
2023-03-22T00:42:51.723Z,6.82
2023-03-22T00:44:59.374Z,5.95
2023-03-22T00:47:04.058Z,8.07
2023-03-22T00:49:08.796Z,6.45
2023-03-22T00:51:15.918Z,6.32
2023-03-22T00:53:21.067Z,8.00
2023-03-22T00:55:25.929Z,7.10
2023-03-22T00:57:30.619Z,8.43
2023-03-22T00:59:38.730Z,5.93
2023-03-22T01:01:46.518Z,6.00
2023-03-22T01:03:52.666Z,6.18
2023-03-22T01:05:58.471Z,8.10
2023-03-22T01:08:08.679Z,6.25
2023-03-22T01:10:15.205Z,6.90
2023-03-22T01:12:21.520Z,6.72
2023-03-22T01:14:26.419Z,7.22
2023-03-22T01:16:31.265Z,7.38
2023-03-22T01:18:38.889Z,7.65
2023-03-22T01:20:44.311Z,7.35
2023-03-22T01:22:49.100Z,7.03
2023-03-22T01:24:54.068Z,6.50
2023-03-22T01:26:59.002Z,7.13
2023-03-22T01:29:03.673Z,6.90
2023-03-22T01:31:09.018Z,6.13
2023-03-22T01:33:13.956Z,6.50
2023-03-22T01:35:21.847Z,10.05
2023-03-22T01:37:27.809Z,8.30
2023-03-22T01:39:32.633Z,7.25
2023-03-22T01:41:41.133Z,6.28
2023-03-22T01:44:23.946Z,8.20
2023-03-22T01:46:33.150Z,6.43
2023-03-22T01:48:42.166Z,6.53
2023-03-22T01:50:58.533Z,6.47
2023-03-22T01:53:06.774Z,6.18
2023-03-22T01:55:18.313Z,6.22
2023-03-22T01:57:26.232Z,6.43
2023-03-22T01:59:33.330Z,6.60
2023-03-22T02:02:02.880Z,7.55
2023-03-22T02:04:12.397Z,6.43
2023-03-22T02:06:21.180Z,6.63
2023-03-22T02:08:33.382Z,6.15
2023-03-22T02:10:43.404Z,6.07
2023-03-22T02:13:02.126Z,7.32
2023-03-22T02:15:26.632Z,5.72
2023-03-22T02:18:23.000Z,6.13
2023-03-22T02:21:02.481Z,8.05
2023-03-22T02:23:34.017Z,5.78
2023-03-22T02:26:17.160Z,6.18
2023-03-22T02:28:34.156Z,7.05
2023-03-22T02:31:05.073Z,6.68
2023-03-22T02:33:34.220Z,5.22
2023-03-22T02:35:53.616Z,5.88
2023-03-22T02:38:42.559Z,6.35
2023-03-22T02:40:54.323Z,5.75
2023-03-22T02:43:05.731Z,5.53
2023-03-22T02:45:16.915Z,6.28
2023-03-22T02:47:27.231Z,6.15
2023-03-22T02:49:40.426Z,6.00
2023-03-22T02:51:48.718Z,5.13
2023-03-22T02:53:59.144Z,5.18
2023-03-22T02:56:13.603Z,8.65
2023-03-22T02:58:22.358Z,6.95
2023-03-22T03:00:29.624Z,6.03
2023-03-22T03:02:36.500Z,6.38
2023-03-22T03:04:47.358Z,8.88
2023-03-22T03:06:55.884Z,6.30
2023-03-22T03:09:05.169Z,7.63
2023-03-22T03:11:13.053Z,5.28
2023-03-22T03:13:20.217Z,6.72
2023-03-22T03:15:26.751Z,5.85
2023-03-22T03:17:50.623Z,4.80
2023-03-22T03:20:08.031Z,5.75
2023-03-22T03:22:35.388Z,7.10
2023-03-22T03:24:47.957Z,5.53
2023-03-22T03:27:03.833Z,6.03
2023-03-22T03:29:16.353Z,6.22
2023-03-22T03:31:34.634Z,8.07
2023-03-22T03:33:43.608Z,7.72
2023-03-22T03:35:53.458Z,5.68
2023-03-22T03:38:01.821Z,6.15
2023-03-22T03:40:12.910Z,7.72
2023-03-22T03:42:21.965Z,6.90
2023-03-22T03:44:27.576Z,6.35
2023-03-22T03:46:32.715Z,6.22
2023-03-22T03:48:40.326Z,6.68
2023-03-22T03:50:45.327Z,9.35
2023-03-22T03:52:50.414Z,7.15
2023-03-22T03:54:55.533Z,7.88
2023-03-22T03:57:09.821Z,7.40
2023-03-22T03:59:18.701Z,7.05
2023-03-22T04:01:26.461Z,8.73
2023-03-22T04:03:46.672Z,8.23
2023-03-22T04:06:08.962Z,6.30
2023-03-22T04:08:16.467Z,6.63
2023-03-22T04:10:21.496Z,8.90
2023-03-22T04:12:26.287Z,16.35
2023-03-22T04:14:56.022Z,12.48
2023-03-22T04:19:09.042Z,12.98
2023-03-22T04:21:16.617Z,8.27
2023-03-22T04:23:27.930Z,7.70
2023-03-22T04:25:33.983Z,6.63
2023-03-22T04:27:51.215Z,5.80
2023-03-22T04:30:01.138Z,6.45
2023-03-22T04:32:34.855Z,6.68
2023-03-22T04:34:40.043Z,6.70
2023-03-22T04:36:49.905Z,6.07
2023-03-22T04:39:11.755Z,6.65
2023-03-22T04:41:21.633Z,6.65
2023-03-22T04:43:29.517Z,6.70
2023-03-22T04:45:42.208Z,5.38
2023-03-22T04:47:48.200Z,6.15
2023-03-22T04:49:53.723Z,8.88
2023-03-22T04:51:59.912Z,6.70
2023-03-22T04:54:13.070Z,6.13
2023-03-22T04:56:19.875Z,6.65
2023-03-22T04:58:30.492Z,7.68
2023-03-22T05:00:37.767Z,8.75
2023-03-22T05:02:46.251Z,8.10
2023-03-22T05:05:01.331Z,6.28
2023-03-22T05:07:11.764Z,6.45
2023-03-22T05:09:24.633Z,5.85
2023-03-22T05:11:31.799Z,6.13
2023-03-22T05:16:00.352Z,6.25
2023-03-22T05:18:20.559Z,6.80
2023-03-22T05:20:25.401Z,5.72
2023-03-22T05:22:45.979Z,5.93
2023-03-22T05:24:52.007Z,6.40
2023-03-22T05:27:03.996Z,6.43
2023-03-22T05:29:09.735Z,8.02
2023-03-22T05:31:34.687Z,6.07
2023-03-22T05:33:44.257Z,6.95
2023-03-22T05:35:52.035Z,6.45
2023-03-22T05:37:57.330Z,7.25
2023-03-22T05:40:05.388Z,7.20
2023-03-22T05:42:14.907Z,5.45
2023-03-22T05:44:20.025Z,6.40
2023-03-22T05:46:37.358Z,9.57
2023-03-22T05:49:03.803Z,6.90
2023-03-22T05:51:10.092Z,7.20
2023-03-22T05:53:15.080Z,5.85
2023-03-22T05:55:26.356Z,6.43
2023-03-22T05:57:34.932Z,6.80
2023-03-22T05:59:42.118Z,6.22
2023-03-22T06:01:52.595Z,6.57
2023-03-22T06:04:03.610Z,5.60
2023-03-22T06:06:44.335Z,5.90
2023-03-22T06:09:15.954Z,6.55
2023-03-22T06:11:22.743Z,5.70
2023-03-22T06:13:27.831Z,6.65
2023-03-22T06:15:32.844Z,6.57
2023-03-22T06:17:45.952Z,6.65
2023-03-22T06:19:57.170Z,8.55
2023-03-22T06:22:02.615Z,7.47
2023-03-22T06:24:08.304Z,7.30
2023-03-22T06:26:13.633Z,6.75
2023-03-22T06:28:22.662Z,6.95
2023-03-22T06:30:30.035Z,5.32
2023-03-22T06:33:00.672Z,6.95
2023-03-22T06:35:09.071Z,5.93
2023-03-22T06:37:13.830Z,6.25
2023-03-22T06:39:20.480Z,5.13
2023-03-22T06:41:26.717Z,6.95
2023-03-22T06:43:31.688Z,6.38
2023-03-22T06:45:50.348Z,8.02
2023-03-22T06:48:01.311Z,6.05
2023-03-22T06:50:39.951Z,6.43
2023-03-22T06:52:55.948Z,5.97
2023-03-22T06:55:01.043Z,6.60
2023-03-22T06:57:06.320Z,7.13
2023-03-22T06:59:11.260Z,8.48
2023-03-22T07:01:16.240Z,6.32
2023-03-22T07:03:21.231Z,6.05
2023-03-22T07:05:38.440Z,5.60
2023-03-22T07:07:43.361Z,5.03
2023-03-22T07:09:48.350Z,5.53
2023-03-22T07:11:53.886Z,5.30
2023-03-22T07:13:59.081Z,4.68
2023-03-22T07:16:10.890Z,9.43
2023-03-22T07:18:36.795Z,5.00
2023-03-22T07:20:44.514Z,5.07
2023-03-22T07:22:49.425Z,5.53
2023-03-22T07:24:57.814Z,4.40
2023-03-22T07:27:06.013Z,8.13
2023-03-22T07:29:11.389Z,5.70
2023-03-22T07:31:16.974Z,5.70
2023-03-22T07:33:31.020Z,6.80
2023-03-22T07:35:37.014Z,5.45
2023-03-22T07:37:45.593Z,7.65
2023-03-22T07:39:59.468Z,7.63
2023-03-22T07:42:09.750Z,7.75
2023-03-22T07:44:20.996Z,6.00
2023-03-22T07:46:39.317Z,6.38
2023-03-22T07:48:55.252Z,9.45
2023-03-22T07:51:19.313Z,5.47
2023-03-22T07:53:29.213Z,7.00
2023-03-22T07:55:35.825Z,6.90
2023-03-22T07:57:41.187Z,8.13
2023-03-22T07:59:46.309Z,9.57
2023-03-22T08:01:51.984Z,7.28
2023-03-22T08:04:04.551Z,5.55
2023-03-22T08:06:23.669Z,7.05
2023-03-22T08:08:31.488Z,6.57
2023-03-22T08:10:37.080Z,6.55
2023-03-22T08:12:42.425Z,6.20
2023-03-22T08:15:05.250Z,6.47
2023-03-22T08:17:11.678Z,5.35
2023-03-22T08:19:16.654Z,7.05
2023-03-22T08:21:21.743Z,5.60
2023-03-22T08:23:41.531Z,10.57
2023-03-22T08:26:02.334Z,8.30
2023-03-22T08:28:07.367Z,8.35
2023-03-22T08:30:13.665Z,7.63
2023-03-22T08:32:19.956Z,12.27
2023-03-22T08:34:28.590Z,12.27
2023-03-22T08:36:35.123Z,10.38
2023-03-22T08:38:46.138Z,10.68
2023-03-22T08:40:53.596Z,10.00
2023-03-22T08:43:02.129Z,12.63
2023-03-22T08:45:10.452Z,8.10
2023-03-22T08:47:21.682Z,7.07
2023-03-22T08:49:31.586Z,6.78
2023-03-22T08:51:44.380Z,6.30
2023-03-22T08:53:58.974Z,6.43
2023-03-22T08:56:22.828Z,5.18
2023-03-22T08:58:40.783Z,5.50
2023-03-22T09:03:28.341Z,7.43
2023-03-22T09:05:33.061Z,5.82
2023-03-22T09:07:37.872Z,6.63
2023-03-22T09:09:51.462Z,8.02
2023-03-22T09:11:56.376Z,4.97
2023-03-22T09:14:01.895Z,5.63
2023-03-22T09:16:09.031Z,4.85
2023-03-22T09:18:14.291Z,5.32
2023-03-22T09:20:19.158Z,7.10
2023-03-22T09:22:25.291Z,5.82
2023-03-22T09:24:30.140Z,6.55
2023-03-22T09:26:41.713Z,5.13
2023-03-22T09:28:46.961Z,6.00
2023-03-22T09:30:53.690Z,5.65
2023-03-22T09:32:59.262Z,5.45
2023-03-22T09:35:04.025Z,4.65
2023-03-22T09:37:19.254Z,5.22
2023-03-22T09:39:30.130Z,7.90
2023-03-22T09:41:43.900Z,6.10
2023-03-22T09:43:54.198Z,9.60
2023-03-22T09:45:59.156Z,5.45
2023-03-22T09:48:07.164Z,4.80
2023-03-22T09:50:16.632Z,4.32
2023-03-22T09:52:21.840Z,4.70
2023-03-22T09:54:35.045Z,4.00
2023-03-22T09:56:43.490Z,3.83
2023-03-22T09:58:53.966Z,3.88
2023-03-22T10:01:02.228Z,3.88
2023-03-22T10:03:17.518Z,6.20
2023-03-22T10:05:30.073Z,4.68
2023-03-22T10:07:45.757Z,5.22
2023-03-22T10:10:02.464Z,4.88
2023-03-22T10:12:18.611Z,4.35
2023-03-22T10:14:33.697Z,5.05
2023-03-22T10:16:38.771Z,4.32
2023-03-22T10:18:47.292Z,4.82
2023-03-22T10:20:59.785Z,7.68
2023-03-22T10:23:07.409Z,6.03
2023-03-22T10:25:17.942Z,4.65
2023-03-22T10:27:30.064Z,6.25
2023-03-22T10:29:41.416Z,8.38
2023-03-22T10:31:48.102Z,6.25
2023-03-22T10:33:58.650Z,4.25
2023-03-22T10:36:05.579Z,4.05
2023-03-22T10:38:18.189Z,3.60
2023-03-22T10:40:27.491Z,3.90
2023-03-22T10:42:37.860Z,4.72
2023-03-22T10:44:50.747Z,3.85
2023-03-22T10:49:03.869Z,4.20
2023-03-22T10:51:10.040Z,4.32
2023-03-22T10:53:23.994Z,4.07
2023-03-22T10:55:29.202Z,3.78
2023-03-22T10:57:36.605Z,3.20
2023-03-22T10:59:51.151Z,3.03
2023-03-22T11:01:56.526Z,4.20
2023-03-22T11:04:03.188Z,2.90
2023-03-22T11:06:11.307Z,3.42
2023-03-22T11:08:17.844Z,3.28
2023-03-22T11:10:27.579Z,3.83
2023-03-22T11:12:32.678Z,4.40
2023-03-22T11:14:45.009Z,5.05
2023-03-22T11:16:56.024Z,2.70
2023-03-22T11:19:03.921Z,3.90
2023-03-22T11:21:12.628Z,15.45
2023-03-22T11:23:18.672Z,4.00
2023-03-22T11:25:28.741Z,3.58
2023-03-22T11:27:36.560Z,3.17
2023-03-22T11:29:49.684Z,2.75
2023-03-22T11:34:02.563Z,3.00
2023-03-22T11:36:18.708Z,2.92
2023-03-22T11:38:29.588Z,3.63
2023-03-22T11:40:36.764Z,4.35
2023-03-22T11:42:41.814Z,4.20
2023-03-22T11:44:49.620Z,3.58
2023-03-22T11:47:00.727Z,5.97
2023-03-22T11:49:10.197Z,3.30
2023-03-22T11:51:20.538Z,2.67
2023-03-22T11:53:28.742Z,2.92
2023-03-22T11:55:34.716Z,4.15
2023-03-22T11:57:40.105Z,4.80
2023-03-22T11:59:59.629Z,3.70
2023-03-22T12:02:16.122Z,4.63
2023-03-22T12:04:27.140Z,7.60
2023-03-22T12:06:36.481Z,5.60
2023-03-22T12:08:45.597Z,5.03
2023-03-22T12:10:55.366Z,4.28
2023-03-22T12:13:03.614Z,2.70
2023-03-22T12:15:18.538Z,3.40
2023-03-22T12:17:32.060Z,3.33
2023-03-22T12:19:49.816Z,3.05
2023-03-22T12:21:55.514Z,3.95
2023-03-22T12:24:04.110Z,3.40
2023-03-22T12:26:15.808Z,4.75
2023-03-22T12:28:25.126Z,5.22
2023-03-22T12:30:36.673Z,4.47
2023-03-22T12:32:46.369Z,3.20
2023-03-22T12:35:01.376Z,3.55
2023-03-22T12:39:28.768Z,5.63
2023-03-22T12:41:38.505Z,3.60
2023-03-22T12:43:51.336Z,4.35
2023-03-22T12:46:04.060Z,2.65
2023-03-22T12:48:13.637Z,5.57
2023-03-22T12:50:21.989Z,3.05
2023-03-22T12:52:44.526Z,3.20
2023-03-22T12:54:54.263Z,3.05
2023-03-22T12:57:00.183Z,2.78
2023-03-22T12:59:08.685Z,2.95
2023-03-22T13:01:25.423Z,3.67
2023-03-22T13:03:32.953Z,2.83
2023-03-22T13:05:40.075Z,2.90
2023-03-22T13:07:55.934Z,2.20
2023-03-22T13:10:02.640Z,2.47
2023-03-22T13:12:30.780Z,2.25
2023-03-22T13:14:58.990Z,2.80
2023-03-22T13:17:09.830Z,3.83
2023-03-22T13:19:37.191Z,2.95
2023-03-22T13:21:43.613Z,2.47
2023-03-22T13:24:05.194Z,1.75
2023-03-22T13:26:18.337Z,4.20
2023-03-22T13:28:29.633Z,2.22
2023-03-22T13:30:38.616Z,2.65
2023-03-22T13:32:55.979Z,3.55
2023-03-22T13:35:01.683Z,3.00
2023-03-22T13:37:12.341Z,2.78
2023-03-22T13:39:19.451Z,3.30
2023-03-22T13:41:29.264Z,3.20
2023-03-22T13:43:45.940Z,1.70
2023-03-22T13:46:05.744Z,2.53
2023-03-22T13:48:33.669Z,3.33
2023-03-22T13:50:42.213Z,1.55
2023-03-22T13:52:55.535Z,2.10
2023-03-22T13:55:01.157Z,1.63
2023-03-22T13:57:06.224Z,2.60
2023-03-22T13:59:14.169Z,1.48
2023-03-22T14:01:26.816Z,2.40
2023-03-22T14:03:39.115Z,2.30
2023-03-22T14:05:47.411Z,1.98
2023-03-22T14:07:56.311Z,1.92
2023-03-22T14:10:05.580Z,1.52
2023-03-22T14:12:20.778Z,1.25
2023-03-22T14:14:30.083Z,2.47
2023-03-22T14:16:42.913Z,4.00
2023-03-22T14:18:52.274Z,1.92
2023-03-22T14:21:00.991Z,1.38
2023-03-22T14:52:40.695Z,1.45
2023-03-22T14:54:47.078Z,1.90
2023-03-22T14:56:53.093Z,1.50
2023-03-22T14:59:00.878Z,1.27
2023-03-22T15:01:08.335Z,1.90
2023-03-22T15:03:20.313Z,1.20
2023-03-22T15:05:27.936Z,1.50
2023-03-22T15:07:33.226Z,1.58
2023-03-22T15:09:40.840Z,2.38
2023-03-22T15:11:46.548Z,1.55
2023-03-22T15:13:53.187Z,1.42
2023-03-22T15:15:59.309Z,2.08
2023-03-22T15:18:05.272Z,1.80
2023-03-22T15:20:11.217Z,1.42
2023-03-22T15:22:18.015Z,2.25
2023-03-22T15:24:30.718Z,2.20
2023-03-22T15:26:40.279Z,3.13
2023-03-22T15:28:50.330Z,2.90
2023-03-22T15:31:01.846Z,2.63
2023-03-22T15:33:09.621Z,1.50
2023-03-22T15:35:17.447Z,3.15
2023-03-22T15:37:28.866Z,1.75
2023-03-22T15:39:39.555Z,6.55
2023-03-22T15:41:55.826Z,1.80
2023-03-22T15:44:08.248Z,3.00
2023-03-22T15:46:21.274Z,5.80
2023-03-22T15:48:30.128Z,1.63
2023-03-22T15:50:41.517Z,1.50
2023-03-22T15:52:52.236Z,1.48
2023-03-22T15:55:01.619Z,3.03
2023-03-22T15:57:22.598Z,1.95
2023-03-22T15:59:29.687Z,2.25
2023-03-22T16:01:44.954Z,2.03
2023-03-22T16:03:57.108Z,2.05
2023-03-22T16:06:02.205Z,1.10
2023-03-22T16:08:07.444Z,3.25
2023-03-22T16:10:18.324Z,3.25
2023-03-22T16:12:27.355Z,3.05
2023-03-22T16:14:32.267Z,1.55
2023-03-22T16:16:37.462Z,2.42
2023-03-22T16:18:42.316Z,3.75
2023-03-22T16:20:48.414Z,2.05
2023-03-22T16:22:54.172Z,2.83
2023-03-22T16:25:00.404Z,1.38
2023-03-22T16:27:05.387Z,0.88
2023-03-22T16:29:12.826Z,1.33
2023-03-22T16:31:19.806Z,16.80
2023-03-22T16:33:24.824Z,6.65
2023-03-22T16:35:30.090Z,20.00
2023-03-22T16:37:37.761Z,2.08
2023-03-22T16:39:42.759Z,1.00
2023-03-22T16:41:47.649Z,3.20
2023-03-22T16:43:53.304Z,2.28
2023-03-22T16:46:20.372Z,1.95
2023-03-22T16:48:27.092Z,1.27
2023-03-22T16:50:55.113Z,1.88
2023-03-22T16:53:00.473Z,0.98
2023-03-22T16:55:05.960Z,0.73
2023-03-22T16:57:19.490Z,1.75
2023-03-22T16:59:27.931Z,2.40
2023-03-22T17:01:36.159Z,4.13
2023-03-22T17:03:41.428Z,8.25
2023-03-22T17:05:47.308Z,5.63
2023-03-22T17:07:53.324Z,4.10
2023-03-22T17:09:58.482Z,4.68
2023-03-22T17:12:03.842Z,2.53
2023-03-22T17:14:08.936Z,1.90
2023-03-22T17:16:15.225Z,3.22
2023-03-22T17:18:23.053Z,4.68
2023-03-22T17:20:29.472Z,3.97
2023-03-22T17:22:34.572Z,3.47
2023-03-22T17:24:40.735Z,3.72
2023-03-22T17:26:45.824Z,3.08
2023-03-22T17:28:50.756Z,4.13
2023-03-22T17:30:55.667Z,4.65
2023-03-22T17:33:01.910Z,5.22
2023-03-22T17:35:10.331Z,5.50
2023-03-22T17:37:15.491Z,4.40
2023-03-22T17:39:36.157Z,5.68
2023-03-22T17:41:45.700Z,3.17
2023-03-22T17:43:50.706Z,3.90
2023-03-22T17:46:38.295Z,3.40
2023-03-22T17:48:20.459Z,2.17
2023-03-22T17:50:31.076Z,2.35
2023-03-22T17:52:36.132Z,2.47
2023-03-22T17:55:08.060Z,7.18
2023-03-22T17:57:40.347Z,3.28
2023-03-22T17:59:31.657Z,6.60
2023-03-22T18:01:36.530Z,4.63
2023-03-22T18:03:41.537Z,5.63
2023-03-22T18:05:49.191Z,8.15
2023-03-22T18:08:10.377Z,4.95
2023-03-22T18:10:19.674Z,8.23
2023-03-22T18:12:24.701Z,7.53
2023-03-22T18:14:35.845Z,6.90
2023-03-22T18:16:53.297Z,6.68
2023-03-22T18:19:03.450Z,4.38
2023-03-22T18:21:15.584Z,3.42
2023-03-22T18:23:20.588Z,2.40
2023-03-22T18:25:29.383Z,5.78
2023-03-22T18:27:47.541Z,4.97
2023-03-22T18:29:52.876Z,2.33
2023-03-22T18:32:08.874Z,3.30
2023-03-22T18:34:22.241Z,3.97
2023-03-22T18:36:29.867Z,4.00
2023-03-22T18:39:09.721Z,3.60
2023-03-22T18:41:31.498Z,3.47
2023-03-22T18:43:25.910Z,2.80
2023-03-22T18:45:42.448Z,3.35
2023-03-22T18:47:56.335Z,7.35
2023-03-22T18:50:01.490Z,6.13
2023-03-22T18:54:17.371Z,5.35
2023-03-22T18:56:22.407Z,3.80
2023-03-22T18:58:27.552Z,4.00
2023-03-22T19:00:32.533Z,3.92
2023-03-22T19:02:40.179Z,3.65
2023-03-22T19:04:45.528Z,4.25
2023-03-22T19:06:51.527Z,4.55
2023-03-22T19:09:02.295Z,4.68
2023-03-22T19:11:07.762Z,8.00
2023-03-22T19:13:14.015Z,5.45
2023-03-22T19:15:44.047Z,5.53
2023-03-22T19:17:45.164Z,4.63
2023-03-22T19:19:57.536Z,7.18
2023-03-22T19:22:08.073Z,6.22
2023-03-22T19:24:18.356Z,4.47
2023-03-22T19:26:28.100Z,8.40
2023-03-22T19:28:36.079Z,5.07
2023-03-22T19:30:49.919Z,5.18
2023-03-22T19:33:20.201Z,5.88
2023-03-22T19:35:21.094Z,6.50
2023-03-22T19:37:26.043Z,5.63
2023-03-22T19:39:34.003Z,4.38
2023-03-22T19:43:46.693Z,6.28
2023-03-22T19:45:51.609Z,5.35
2023-03-22T19:48:04.027Z,5.28
2023-03-22T19:50:11.417Z,5.18
2023-03-22T19:52:16.774Z,5.13
2023-03-22T19:54:36.044Z,3.92
2023-03-22T19:56:54.478Z,7.65
2023-03-22T19:59:00.015Z,6.10
2023-03-22T20:01:12.221Z,5.65
2023-03-22T20:03:18.117Z,5.20
2023-03-22T20:05:25.532Z,4.82
2023-03-22T20:07:30.569Z,7.97
2023-03-22T20:09:35.948Z,5.75
2023-03-22T20:11:43.668Z,8.00
2023-03-22T20:13:57.044Z,6.35
2023-03-22T20:16:09.233Z,7.30
2023-03-22T20:18:19.468Z,6.75
2023-03-22T20:20:33.387Z,7.03
2023-03-22T20:22:40.018Z,7.88
2023-03-22T20:24:51.411Z,6.63
2023-03-22T20:27:28.825Z,6.40
2023-03-22T20:30:10.987Z,5.30
2023-03-22T20:32:27.812Z,6.30
2023-03-22T20:34:33.423Z,5.47
2023-03-22T20:36:39.035Z,5.60
2023-03-22T20:39:09.480Z,7.55
2023-03-22T20:44:11.296Z,7.45
2023-03-22T20:46:19.584Z,6.10
2023-03-22T20:48:24.784Z,5.90
2023-03-22T20:50:30.954Z,8.68
2023-03-22T20:52:35.968Z,5.22
2023-03-22T20:54:40.885Z,6.93
2023-03-22T20:56:46.135Z,5.60
2023-03-22T20:58:53.178Z,6.30
2023-03-22T21:01:00.242Z,6.13
2023-03-22T21:03:08.213Z,6.10
2023-03-22T21:05:14.919Z,5.47
2023-03-22T21:07:20.409Z,5.75
2023-03-22T21:09:25.782Z,4.57
2023-03-22T21:11:31.340Z,5.65
2023-03-22T21:13:40.830Z,5.05
2023-03-22T21:15:46.002Z,4.18
2023-03-22T21:17:51.214Z,5.15
2023-03-22T21:19:58.802Z,5.72
2023-03-22T21:22:05.345Z,5.22
2023-03-22T21:24:11.076Z,6.90
2023-03-22T21:26:16.513Z,6.80
2023-03-22T21:28:26.158Z,4.40
2023-03-22T21:30:31.527Z,6.05
2023-03-22T21:32:37.194Z,4.22
2023-03-22T21:34:42.244Z,5.35
2023-03-22T21:36:51.262Z,8.13
2023-03-22T21:38:57.138Z,4.45
2023-03-22T21:41:03.315Z,5.97
2023-03-22T21:43:09.133Z,4.97
2023-03-22T21:45:15.201Z,6.93
2023-03-22T21:47:24.017Z,4.57
2023-03-22T21:49:30.261Z,6.13
2023-03-22T21:51:35.558Z,5.32
2023-03-22T21:53:44.171Z,4.72
2023-03-22T21:55:50.059Z,5.63
2023-03-22T21:57:55.527Z,5.10
2023-03-22T22:00:00.449Z,5.72
2023-03-22T22:02:05.999Z,6.25
2023-03-22T22:04:11.251Z,5.43
2023-03-22T22:06:16.200Z,6.60
2023-03-22T22:08:22.043Z,4.95
2023-03-22T22:10:31.227Z,6.13
2023-03-22T22:12:36.846Z,4.65
2023-03-22T22:14:41.935Z,5.07
2023-03-22T22:16:47.806Z,5.50
2023-03-22T22:18:52.756Z,5.03
2023-03-22T22:21:01.091Z,3.30
2023-03-22T22:23:06.220Z,4.95
2023-03-22T22:25:13.952Z,5.32
2023-03-22T22:27:22.202Z,3.70
2023-03-22T22:29:27.625Z,4.47
2023-03-22T22:31:34.184Z,4.65
2023-03-22T22:33:40.085Z,3.67
2023-03-22T22:35:45.627Z,4.25
2023-03-22T22:37:51.391Z,3.80
2023-03-22T22:39:56.635Z,3.67
2023-03-22T22:42:01.726Z,4.38
2023-03-22T22:44:10.301Z,5.68
2023-03-22T22:46:16.334Z,3.17
2023-03-22T22:48:21.730Z,3.78
2023-03-22T22:50:26.673Z,3.92
2023-03-22T22:52:37.768Z,5.85
2023-03-22T22:54:42.749Z,6.18
2023-03-22T22:56:47.602Z,4.30
2023-03-22T22:58:54.425Z,5.13
2023-03-22T23:01:01.821Z,3.47
2023-03-22T23:03:06.804Z,3.85
2023-03-22T23:05:14.408Z,5.40
2023-03-22T23:07:19.503Z,5.50
2023-03-22T23:09:27.657Z,3.88
2023-03-22T23:11:33.962Z,3.35
2023-03-22T23:13:46.787Z,5.88
2023-03-22T23:15:52.964Z,3.22
2023-03-22T23:18:09.984Z,3.47
2023-03-22T23:20:16.075Z,3.55
2023-03-22T23:22:23.304Z,3.72
2023-03-22T23:24:29.332Z,3.67
2023-03-22T23:26:34.292Z,3.72
2023-03-22T23:28:39.786Z,3.95
2023-03-22T23:30:44.722Z,3.10
2023-03-22T23:32:51.700Z,5.60
2023-03-22T23:35:03.628Z,4.10
2023-03-22T23:37:10.987Z,2.67
2023-03-22T23:39:15.984Z,4.45
2023-03-22T23:41:22.335Z,4.35
2023-03-22T23:43:27.300Z,3.33
2023-03-22T23:45:32.262Z,4.32
2023-03-22T23:47:37.972Z,5.00
2023-03-22T23:49:42.944Z,3.63
2023-03-22T23:51:50.690Z,3.08
2023-03-22T23:53:56.823Z,4.15
2023-03-22T23:56:01.792Z,4.65
2023-03-22T23:58:07.586Z,4.47
